Temp: 14.1°C   Baro: 1018.0mb
  Wind: 2.9mph   Dir: SSW (209°)
  Rain: 0.0mm (0.0mm/hr)
  Solar: 0W/m2  Hum: 88%

Historic data

Bath Spa Weather Station Historical Data
Daily Summary for August 17, 2022 Units:  Both    English   Metric
Daily Weekly Monthly Yearly Custom
  High: Low: Average:
Temperature: 70.5 °F /  21.4 °C 61.5 °F /  16.4 °C 65 °F /  18.3 °C
Dew Point: 63.4 °F /  17.4 °C 58 °F /  14.4 °C 60.5 °F /  15.8 °C
Humidity: 93% 74.8% 86%
Wind Speed: 11.2mph /  18km/h - 3.1mph /  5km/h
Wind Gust: 19mph /  30.6km/h - -
Wind- - NE
Pressure: 30.01 in /  1016.1 hPa 29.84 in /  1010.4 hPa -
Precipitation: 0.00 in /  0 mm    
Historical Graphs
 
 
Tabular Data for August 17, 2022
Time Temperature Dew Point Pressure Wind Wind Speed Wind Gust Humidity Rainfall Rate (Hourly) solar
00:09 61.9 °F /  16.6 °C 59.9 °F /  15.5 °C 29.85in /  1010.7hPa NE 1.6mph /  2.6km/h 5mph /  8km/h 93% 0.00in /  0mm 0 W/m2
00:14 61.9 °F /  16.6 °C 59.9 °F /  15.5 °C 29.85in /  1010.7hPa ENE 2.2mph /  3.5km/h 5mph /  8km/h 93% 0.00in /  0mm 0 W/m2
00:19 61.9 °F /  16.6 °C 59.9 °F /  15.5 °C 29.84in /  1010.4hPa NE 1.5mph /  2.4km/h 4mph /  6.4km/h 93% 0.00in /  0mm 0 W/m2
00:24 61.9 °F /  16.6 °C 59.9 °F /  15.5 °C 29.84in /  1010.4hPa NE 2.4mph /  3.9km/h 5mph /  8km/h 93% 0.00in /  0mm 0 W/m2
00:29 61.9 °F /  16.6 °C 59.9 °F /  15.5 °C 29.85in /  1010.7hPa NE 2.1mph /  3.4km/h 6mph /  9.7km/h 93% 0.00in /  0mm 0 W/m2
00:34 61.7 °F /  16.5 °C 59.7 °F /  15.4 °C 29.84in /  1010.4hPa ENE 1.6mph /  2.6km/h 6mph /  9.7km/h 93% 0.00in /  0mm 0 W/m2
00:39 61.7 °F /  16.5 °C 59.7 °F /  15.4 °C 29.84in /  1010.4hPa NE 1.8mph /  2.9km/h 8mph /  12.9km/h 93% 0.00in /  0mm 0 W/m2
00:44 61.7 °F /  16.5 °C 59.7 °F /  15.4 °C 29.84in /  1010.4hPa NE 1.8mph /  2.9km/h 6mph /  9.7km/h 93% 0.00in /  0mm 0 W/m2
00:49 61.6 °F /  16.4 °C 59.6 °F /  15.3 °C 29.84in /  1010.4hPa NE 2mph /  3.2km/h 5mph /  8km/h 93% 0.00in /  0mm 0 W/m2
00:54 61.5 °F /  16.4 °C 59.5 °F /  15.3 °C 29.84in /  1010.4hPa NNE 2.2mph /  3.5km/h 5mph /  8km/h 93% 0.00in /  0mm 0 W/m2
00:59 61.7 °F /  16.5 °C 59.7 °F /  15.4 °C 29.84in /  1010.4hPa NNE 0.7mph /  1.1km/h 4mph /  6.4km/h 93% 0.00in /  0mm 0 W/m2
01:04 61.7 °F /  16.5 °C 59.7 °F /  15.4 °C 29.84in /  1010.4hPa NNE 0.8mph /  1.3km/h 3mph /  4.8km/h 93% 0.00in /  0mm 0 W/m2
01:09 61.7 °F /  16.5 °C 59.7 °F /  15.4 °C 29.84in /  1010.4hPa NNE 0.4mph /  0.6km/h 2mph /  3.2km/h 93% 0.00in /  0mm 0 W/m2
01:14 61.7 °F /  16.5 °C 59.7 °F /  15.4 °C 29.84in /  1010.4hPa NNE 1.2mph /  1.9km/h 3mph /  4.8km/h 93% 0.00in /  0mm 0 W/m2
01:19 61.9 °F /  16.6 °C 59.9 °F /  15.5 °C 29.84in /  1010.4hPa NNE 0.2mph /  0.3km/h 3mph /  4.8km/h 93% 0.00in /  0mm 0 W/m2
01:24 61.9 °F /  16.6 °C 59.9 °F /  15.5 °C 29.84in /  1010.4hPa NNE 0.4mph /  0.6km/h 2mph /  3.2km/h 93% 0.00in /  0mm 0 W/m2
01:29 61.9 °F /  16.6 °C 59.9 °F /  15.5 °C 29.84in /  1010.4hPa NNE 0.8mph /  1.3km/h 3mph /  4.8km/h 93% 0.00in /  0mm 0 W/m2
01:34 61.9 °F /  16.6 °C 59.9 °F /  15.5 °C 29.84in /  1010.4hPa NNE 0.5mph /  0.8km/h 2mph /  3.2km/h 93% 0.00in /  0mm 0 W/m2
01:39 61.9 °F /  16.6 °C 59.9 °F /  15.5 °C 29.84in /  1010.4hPa NE 1mph /  1.6km/h 4mph /  6.4km/h 93% 0.00in /  0mm 0 W/m2
01:44 61.9 °F /  16.6 °C 59.9 °F /  15.5 °C 29.84in /  1010.4hPa NE 2.1mph /  3.4km/h 4mph /  6.4km/h 93% 0.00in /  0mm 0 W/m2
01:49 61.9 °F /  16.6 °C 59.9 °F /  15.5 °C 29.84in /  1010.4hPa NE 0.6mph /  1km/h 2mph /  3.2km/h 93% 0.00in /  0mm 0 W/m2
01:54 61.9 °F /  16.6 °C 59.9 °F /  15.5 °C 29.84in /  1010.4hPa NE 1.9mph /  3.1km/h 4mph /  6.4km/h 93% 0.00in /  0mm 0 W/m2
01:59 61.8 °F /  16.6 °C 59.8 °F /  15.4 °C 29.84in /  1010.4hPa NNE 0.8mph /  1.3km/h 4mph /  6.4km/h 93% 0.00in /  0mm 0 W/m2
02:04 61.8 °F /  16.6 °C 59.8 °F /  15.4 °C 29.84in /  1010.4hPa North 1.6mph /  2.6km/h 4mph /  6.4km/h 93% 0.00in /  0mm 0 W/m2
02:09 61.7 °F /  16.5 °C 59.7 °F /  15.4 °C 29.84in /  1010.4hPa North 2mph /  3.2km/h 6mph /  9.7km/h 93% 0.00in /  0mm 0 W/m2
02:14 61.6 °F /  16.4 °C 59.6 °F /  15.3 °C 29.84in /  1010.4hPa NNW 0.6mph /  1km/h 3mph /  4.8km/h 93% 0.00in /  0mm 0 W/m2
02:19 61.7 °F /  16.5 °C 59.7 °F /  15.4 °C 29.84in /  1010.4hPa NE 3.1mph /  5km/h 7mph /  11.3km/h 93% 0.00in /  0mm 0 W/m2
02:29 61.7 °F /  16.5 °C 59.7 °F /  15.4 °C 29.84in /  1010.4hPa NE 1.9mph /  3.1km/h 7mph /  11.3km/h 93% 0.00in /  0mm 0 W/m2
02:34 61.7 °F /  16.5 °C 59.7 °F /  15.4 °C 29.84in /  1010.4hPa NE 2.4mph /  3.9km/h 7mph /  11.3km/h 93% 0.00in /  0mm 0 W/m2
02:39 61.7 °F /  16.5 °C 59.7 °F /  15.4 °C 29.84in /  1010.4hPa NNE 1.8mph /  2.9km/h 8mph /  12.9km/h 93% 0.00in /  0mm 0 W/m2
02:44 61.8 °F /  16.6 °C 59.8 °F /  15.4 °C 29.84in /  1010.4hPa NNE 1.6mph /  2.6km/h 5mph /  8km/h 93% 0.00in /  0mm 0 W/m2
02:49 61.7 °F /  16.5 °C 59.7 °F /  15.4 °C 29.84in /  1010.4hPa Calm   4mph /  6.4km/h 93% 0.00in /  0mm 0 W/m2
02:54 61.9 °F /  16.6 °C 59.9 °F /  15.5 °C 29.84in /  1010.4hPa NNE 0.5mph /  0.8km/h 2mph /  3.2km/h 93% 0.00in /  0mm 0 W/m2
02:59 61.9 °F /  16.6 °C 59.9 °F /  15.5 °C 29.84in /  1010.4hPa NNE 0.4mph /  0.6km/h 3mph /  4.8km/h 93% 0.00in /  0mm 0 W/m2
03:04 61.9 °F /  16.6 °C 59.9 °F /  15.5 °C 29.84in /  1010.4hPa Calm   1mph /  1.6km/h 93% 0.00in /  0mm 0 W/m2
03:09 61.9 °F /  16.6 °C 59.9 °F /  15.5 °C 29.84in /  1010.4hPa Calm     93% 0.00in /  0mm 0 W/m2
03:14 61.9 °F /  16.6 °C 59.9 °F /  15.5 °C 29.84in /  1010.4hPa NE 1.2mph /  1.9km/h 5mph /  8km/h 93% 0.00in /  0mm 0 W/m2
03:19 61.9 °F /  16.6 °C 59.9 °F /  15.5 °C 29.84in /  1010.4hPa NNE 3mph /  4.8km/h 6mph /  9.7km/h 93% 0.00in /  0mm 0 W/m2
03:24 61.9 °F /  16.6 °C 59.9 °F /  15.5 °C 29.84in /  1010.4hPa NNE 2.5mph /  4km/h 7mph /  11.3km/h 93% 0.00in /  0mm 0 W/m2
03:29 61.9 °F /  16.6 °C 59.9 °F /  15.5 °C 29.84in /  1010.4hPa North 3.1mph /  5km/h 6mph /  9.7km/h 93% 0.00in /  0mm 0 W/m2
03:34 61.9 °F /  16.6 °C 59.9 °F /  15.5 °C 29.84in /  1010.4hPa NNE 1.7mph /  2.7km/h 5mph /  8km/h 93% 0.00in /  0mm 0 W/m2
03:39 61.9 °F /  16.6 °C 59.9 °F /  15.5 °C 29.84in /  1010.4hPa NNE 0.9mph /  1.4km/h 3mph /  4.8km/h 93% 0.00in /  0mm 0 W/m2
03:44 62.1 °F /  16.7 °C 60.1 °F /  15.6 °C 29.84in /  1010.4hPa NNE 1.6mph /  2.6km/h 4mph /  6.4km/h 93% 0.00in /  0mm 0 W/m2
03:49 62.1 °F /  16.7 °C 60.1 °F /  15.6 °C 29.84in /  1010.4hPa NNE 2.1mph /  3.4km/h 5mph /  8km/h 93% 0.00in /  0mm 0 W/m2
03:54 62.1 °F /  16.7 °C 60.1 °F /  15.6 °C 29.85in /  1010.7hPa NNE 1.8mph /  2.9km/h 5mph /  8km/h 93% 0.00in /  0mm 0 W/m2
03:59 62.1 °F /  16.7 °C 60.1 °F /  15.6 °C 29.85in /  1010.7hPa NE 2.1mph /  3.4km/h 4mph /  6.4km/h 93% 0.00in /  0mm 0 W/m2
04:04 62.1 °F /  16.7 °C 60.1 °F /  15.6 °C 29.85in /  1010.7hPa NE 2mph /  3.2km/h 5mph /  8km/h 93% 0.00in /  0mm 0 W/m2
04:09 62.1 °F /  16.7 °C 60.1 °F /  15.6 °C 29.85in /  1010.7hPa NE 1.1mph /  1.8km/h 4mph /  6.4km/h 93% 0.00in /  0mm 0 W/m2
04:14 62.1 °F /  16.7 °C 60.1 °F /  15.6 °C 29.85in /  1010.7hPa NE 0.4mph /  0.6km/h 3mph /  4.8km/h 93% 0.00in /  0mm 0 W/m2
04:19 62.1 °F /  16.7 °C 60.1 °F /  15.6 °C 29.85in /  1010.7hPa NE 0.2mph /  0.3km/h 3mph /  4.8km/h 93% 0.00in /  0mm 0 W/m2
04:24 62.2 °F /  16.8 °C 60.2 °F /  15.7 °C 29.85in /  1010.7hPa NE 1.3mph /  2.1km/h 3mph /  4.8km/h 93% 0.00in /  0mm 0 W/m2
04:29 62.2 °F /  16.8 °C 60.3 °F /  15.7 °C 29.85in /  1010.7hPa NE 1mph /  1.6km/h 3mph /  4.8km/h 93% 0.00in /  0mm 0 W/m2
04:34 62.2 °F /  16.8 °C 60.3 °F /  15.7 °C 29.85in /  1010.7hPa NE 0.5mph /  0.8km/h 3mph /  4.8km/h 93% 0.00in /  0mm 0 W/m2
04:39 62.2 °F /  16.8 °C 60.3 °F /  15.7 °C 29.85in /  1010.7hPa NE 0.6mph /  1km/h 3mph /  4.8km/h 93% 0.00in /  0mm 0 W/m2
04:44 62.2 °F /  16.8 °C 60.3 °F /  15.7 °C 29.85in /  1010.7hPa NE 1mph /  1.6km/h 3mph /  4.8km/h 93% 0.00in /  0mm 0 W/m2
04:49 62.2 °F /  16.8 °C 60.3 °F /  15.7 °C 29.85in /  1010.7hPa NNE 1.6mph /  2.6km/h 7mph /  11.3km/h 93% 0.00in /  0mm 0 W/m2
04:54 62.2 °F /  16.8 °C 60.3 °F /  15.7 °C 29.85in /  1010.7hPa NE 3.3mph /  5.3km/h 7mph /  11.3km/h 93% 0.00in /  0mm 0 W/m2
04:59 62.2 °F /  16.8 °C 60.3 °F /  15.7 °C 29.85in /  1010.7hPa NE 3.6mph /  5.8km/h 7mph /  11.3km/h 93% 0.00in /  0mm 0 W/m2
05:04 62.1 °F /  16.7 °C 60.2 °F /  15.7 °C 29.85in /  1010.7hPa NE 1.2mph /  1.9km/h 4mph /  6.4km/h 93% 0.00in /  0mm 0 W/m2
05:09 62.1 °F /  16.7 °C 60.1 °F /  15.6 °C 29.85in /  1010.7hPa NE 0.8mph /  1.3km/h 3mph /  4.8km/h 93% 0.00in /  0mm 0 W/m2
05:14 62.1 °F /  16.7 °C 60.1 °F /  15.6 °C 29.85in /  1010.7hPa NE 0.4mph /  0.6km/h 2mph /  3.2km/h 93% 0.00in /  0mm 0 W/m2
05:19 62.1 °F /  16.7 °C 60.2 °F /  15.7 °C 29.85in /  1010.7hPa NE 0.2mph /  0.3km/h 2mph /  3.2km/h 93% 0.00in /  0mm 0 W/m2
05:24 62.1 °F /  16.7 °C 60.1 °F /  15.6 °C 29.86in /  1011.1hPa NE 0.4mph /  0.6km/h 2mph /  3.2km/h 93% 0.00in /  0mm 0 W/m2
05:29 62.2 °F /  16.8 °C 60.3 °F /  15.7 °C 29.86in /  1011.1hPa Calm   2mph /  3.2km/h 93% 0.00in /  0mm 0 W/m2
05:34 62.2 °F /  16.8 °C 60.3 °F /  15.7 °C 29.86in /  1011.1hPa Calm   1mph /  1.6km/h 93% 0.00in /  0mm 0 W/m2
05:39 62.2 °F /  16.8 °C 60.3 °F /  15.7 °C 29.86in /  1011.1hPa NE 0.8mph /  1.3km/h 3mph /  4.8km/h 93% 0.00in /  0mm 0 W/m2
05:44 62.2 °F /  16.8 °C 60.3 °F /  15.7 °C 29.86in /  1011.1hPa NE 0.2mph /  0.3km/h 2mph /  3.2km/h 93% 0.00in /  0mm 0 W/m2
05:49 62.2 °F /  16.8 °C 60.3 °F /  15.7 °C 29.86in /  1011.1hPa NE 1.7mph /  2.7km/h 3mph /  4.8km/h 93% 0.00in /  0mm 0 W/m2
05:54 62.2 °F /  16.8 °C 60.3 °F /  15.7 °C 29.86in /  1011.1hPa NE 0.9mph /  1.4km/h 3mph /  4.8km/h 93% 0.00in /  0mm 0 W/m2
05:59 62.2 °F /  16.8 °C 60.3 °F /  15.7 °C 29.86in /  1011.1hPa NE 1.2mph /  1.9km/h 3mph /  4.8km/h 93% 0.00in /  0mm 0 W/m2
06:04 62.2 °F /  16.8 °C 60.3 °F /  15.7 °C 29.86in /  1011.1hPa NE 1.2mph /  1.9km/h 5mph /  8km/h 93% 0.00in /  0mm 0 W/m2
06:09 62.2 °F /  16.8 °C 60.3 °F /  15.7 °C 29.86in /  1011.1hPa Calm   3mph /  4.8km/h 93% 0.00in /  0mm 5 W/m2
06:14 62.1 °F /  16.7 °C 60.1 °F /  15.6 °C 29.86in /  1011.1hPa NE 1mph /  1.6km/h 5mph /  8km/h 93% 0.00in /  0mm 7 W/m2
06:19 62.1 °F /  16.7 °C 60.1 °F /  15.6 °C 29.86in /  1011.1hPa ENE 1.9mph /  3.1km/h 7mph /  11.3km/h 93% 0.00in /  0mm 7 W/m2
06:24 62.1 °F /  16.7 °C 60.1 °F /  15.6 °C 29.86in /  1011.1hPa ENE 1.1mph /  1.8km/h 7mph /  11.3km/h 93% 0.00in /  0mm 7 W/m2
06:29 62.1 °F /  16.7 °C 60.1 °F /  15.6 °C 29.86in /  1011.1hPa NE 2mph /  3.2km/h 8mph /  12.9km/h 93% 0.00in /  0mm 7 W/m2
06:34 62.1 °F /  16.7 °C 60.1 °F /  15.6 °C 29.86in /  1011.1hPa NE 1.6mph /  2.6km/h 8mph /  12.9km/h 93% 0.00in /  0mm 11 W/m2
06:39 62.2 °F /  16.8 °C 60.2 °F /  15.7 °C 29.85in /  1010.7hPa NE 3.4mph /  5.5km/h 9mph /  14.5km/h 93% 0.00in /  0mm 19 W/m2
06:44 62.2 °F /  16.8 °C 60.3 °F /  15.7 °C 29.85in /  1010.7hPa NNE 3mph /  4.8km/h 9mph /  14.5km/h 93% 0.00in /  0mm 23 W/m2
06:49 62.1 °F /  16.7 °C 60.2 °F /  15.7 °C 29.85in /  1010.7hPa NE 3.7mph /  6km/h 8mph /  12.9km/h 93% 0.00in /  0mm 32 W/m2
06:54 62.1 °F /  16.7 °C 60.1 °F /  15.6 °C 29.85in /  1010.7hPa ENE 1.9mph /  3.1km/h 7mph /  11.3km/h 93% 0.00in /  0mm 35 W/m2
06:59 62.1 °F /  16.7 °C 60.1 °F /  15.6 °C 29.86in /  1011.1hPa NE 3.6mph /  5.8km/h 5mph /  8km/h 93% 0.00in /  0mm 40 W/m2
07:04 62.1 °F /  16.7 °C 60.2 °F /  15.7 °C 29.86in /  1011.1hPa NNE 2.5mph /  4km/h 5mph /  8km/h 93% 0.00in /  0mm 44 W/m2
07:09 62.2 °F /  16.8 °C 60.3 °F /  15.7 °C 29.86in /  1011.1hPa NNE 2.2mph /  3.5km/h 5mph /  8km/h 93% 0.00in /  0mm 46 W/m2
07:14 62.2 °F /  16.8 °C 60.3 °F /  15.7 °C 29.86in /  1011.1hPa NE 0.6mph /  1km/h 3mph /  4.8km/h 93% 0.00in /  0mm 44 W/m2
07:19 62.2 °F /  16.8 °C 60.3 °F /  15.7 °C 29.86in /  1011.1hPa NE 2.1mph /  3.4km/h 4mph /  6.4km/h 93% 0.00in /  0mm 51 W/m2
07:24 62.4 °F /  16.9 °C 60.4 °F /  15.8 °C 29.87in /  1011.4hPa NE 2.4mph /  3.9km/h 6mph /  9.7km/h 93% 0.00in /  0mm 49 W/m2
07:29 62.4 °F /  16.9 °C 60.4 °F /  15.8 °C 29.87in /  1011.4hPa NNE 2.9mph /  4.7km/h 6mph /  9.7km/h 93% 0.00in /  0mm 35 W/m2
07:34 62.6 °F /  17 °C 60.6 °F /  15.9 °C 29.87in /  1011.4hPa NE 3.5mph /  5.6km/h 7mph /  11.3km/h 93% 0.00in /  0mm 60 W/m2
07:39 62.6 °F /  17 °C 60.6 °F /  15.9 °C 29.87in /  1011.4hPa NE 5.2mph /  8.4km/h 8mph /  12.9km/h 93% 0.00in /  0mm 46 W/m2
07:44 62.8 °F /  17.1 °C 60.8 °F /  16 °C 29.88in /  1011.7hPa NE 2mph /  3.2km/h 6mph /  9.7km/h 93% 0.00in /  0mm 54 W/m2
07:49 62.9 °F /  17.2 °C 60.9 °F /  16.1 °C 29.88in /  1011.7hPa NE 1.7mph /  2.7km/h 6mph /  9.7km/h 93% 0.00in /  0mm 63 W/m2
07:54 63 °F /  17.2 °C 61 °F /  16.1 °C 29.88in /  1011.7hPa NE 3.3mph /  5.3km/h 7mph /  11.3km/h 93% 0.00in /  0mm 74 W/m2
07:59 63.1 °F /  17.3 °C 61.1 °F /  16.2 °C 29.88in /  1011.7hPa NE 3.7mph /  6km/h 8mph /  12.9km/h 93% 0.00in /  0mm 102 W/m2
08:04 63.1 °F /  17.3 °C 61.2 °F /  16.2 °C 29.88in /  1011.7hPa ENE 1.9mph /  3.1km/h 8mph /  12.9km/h 93% 0.00in /  0mm 120 W/m2
08:09 63.3 °F /  17.4 °C 61.3 °F /  16.3 °C 29.88in /  1011.7hPa ENE 4.7mph /  7.6km/h 9mph /  14.5km/h 93% 0.00in /  0mm 130 W/m2
08:14 63.4 °F /  17.4 °C 61.4 °F /  16.3 °C 29.88in /  1011.7hPa NE 4.8mph /  7.7km/h 8mph /  12.9km/h 93% 0.00in /  0mm 128 W/m2
08:19 63.6 °F /  17.6 °C 61.3 °F /  16.3 °C 29.89in /  1012.1hPa NE 2.9mph /  4.7km/h 8mph /  12.9km/h 92.2% 0.00in /  0mm 130 W/m2
08:24 63.7 °F /  17.6 °C 61.3 °F /  16.3 °C 29.89in /  1012.1hPa NE 3mph /  4.8km/h 10mph /  16.1km/h 92% 0.00in /  0mm 139 W/m2
08:29 63.9 °F /  17.7 °C 61.5 °F /  16.4 °C 29.89in /  1012.1hPa NE 4.3mph /  6.9km/h 7mph /  11.3km/h 92% 0.00in /  0mm 181 W/m2
08:34 64 °F /  17.8 °C 61.6 °F /  16.4 °C 29.89in /  1012.1hPa NNE 3.6mph /  5.8km/h 7mph /  11.3km/h 92% 0.00in /  0mm 243 W/m2
08:39 64 °F /  17.8 °C 61.7 °F /  16.5 °C 29.89in /  1012.1hPa North 2.1mph /  3.4km/h 7mph /  11.3km/h 92% 0.00in /  0mm 113 W/m2
08:44 64 °F /  17.8 °C 61.7 °F /  16.5 °C 29.89in /  1012.1hPa NE 3.7mph /  6km/h 8mph /  12.9km/h 92% 0.00in /  0mm 116 W/m2
08:49 64.1 °F /  17.8 °C 61.4 °F /  16.3 °C 29.89in /  1012.1hPa NE 2.5mph /  4km/h 5mph /  8km/h 91% 0.00in /  0mm 120 W/m2
08:54 64.2 °F /  17.9 °C 61.5 °F /  16.4 °C 29.89in /  1012.1hPa NNE 2.9mph /  4.7km/h 7mph /  11.3km/h 91% 0.00in /  0mm 118 W/m2
08:59 64.3 °F /  17.9 °C 61.6 °F /  16.4 °C 29.89in /  1012.1hPa NE 4.5mph /  7.2km/h 8mph /  12.9km/h 91% 0.00in /  0mm 111 W/m2
09:04 64.2 °F /  17.9 °C 61.5 °F /  16.4 °C 29.90in /  1012.4hPa NE 2.3mph /  3.7km/h 7mph /  11.3km/h 91% 0.00in /  0mm 97 W/m2
09:09 64.2 °F /  17.9 °C 61.5 °F /  16.4 °C 29.90in /  1012.4hPa ENE 2.4mph /  3.9km/h 8mph /  12.9km/h 90.8% 0.00in /  0mm 116 W/m2
09:14 64.5 °F /  18.1 °C 61.8 °F /  16.6 °C 29.90in /  1012.4hPa NNE 2.4mph /  3.9km/h 6mph /  9.7km/h 91% 0.00in /  0mm 118 W/m2
09:19 64.4 °F /  18 °C 61.3 °F /  16.3 °C 29.90in /  1012.4hPa NE 3mph /  4.8km/h 8mph /  12.9km/h 90% 0.00in /  0mm 125 W/m2
09:24 64.5 °F /  18.1 °C 61.4 °F /  16.3 °C 29.90in /  1012.4hPa NE 2.9mph /  4.7km/h 7mph /  11.3km/h 90% 0.00in /  0mm 151 W/m2
09:29 64.6 °F /  18.1 °C 61.5 °F /  16.4 °C 29.90in /  1012.4hPa NNE 3.3mph /  5.3km/h 7mph /  11.3km/h 90% 0.00in /  0mm 134 W/m2
09:34 64.5 °F /  18.1 °C 61.4 °F /  16.3 °C 29.90in /  1012.4hPa NNE 3.3mph /  5.3km/h 9mph /  14.5km/h 90% 0.00in /  0mm 135 W/m2
09:39 64.4 °F /  18 °C 61.3 °F /  16.3 °C 29.91in /  1012.8hPa NE 4.3mph /  6.9km/h 8mph /  12.9km/h 90% 0.00in /  0mm 144 W/m2
09:44 64.4 °F /  18 °C 61.3 °F /  16.3 °C 29.91in /  1012.8hPa NE 2.3mph /  3.7km/h 9mph /  14.5km/h 90% 0.00in /  0mm 160 W/m2
09:49 64.6 °F /  18.1 °C 61.5 °F /  16.4 °C 29.91in /  1012.8hPa NE 3.1mph /  5km/h 8mph /  12.9km/h 90% 0.00in /  0mm 171 W/m2
09:54 64.6 °F /  18.1 °C 61.3 °F /  16.3 °C 29.91in /  1012.8hPa NE 2.1mph /  3.4km/h 8mph /  12.9km/h 89.2% 0.00in /  0mm 146 W/m2
09:59 64.8 °F /  18.2 °C 61.5 °F /  16.4 °C 29.91in /  1012.8hPa ENE 4.6mph /  7.4km/h 9mph /  14.5km/h 89% 0.00in /  0mm 279 W/m2
10:04 64.9 °F /  18.3 °C 61.6 °F /  16.4 °C 29.91in /  1012.8hPa East 3.1mph /  5km/h 7mph /  11.3km/h 89% 0.00in /  0mm 299 W/m2
10:09 65 °F /  18.3 °C 61.8 °F /  16.6 °C 29.91in /  1012.8hPa ENE 4.1mph /  6.6km/h 11mph /  17.7km/h 89% 0.00in /  0mm 239 W/m2
10:14 65.1 °F /  18.4 °C 61.9 °F /  16.6 °C 29.91in /  1012.8hPa NE 4.1mph /  6.6km/h 9mph /  14.5km/h 89% 0.00in /  0mm 197 W/m2
10:19 65.1 °F /  18.4 °C 61.7 °F /  16.5 °C 29.91in /  1012.8hPa NE 5.5mph /  8.9km/h 11mph /  17.7km/h 88.6% 0.00in /  0mm 174 W/m2
10:24 65.1 °F /  18.4 °C 61.5 °F /  16.4 °C 29.91in /  1012.8hPa NE 2.7mph /  4.3km/h 10mph /  16.1km/h 88% 0.00in /  0mm 151 W/m2
10:29 65.1 °F /  18.4 °C 61.5 °F /  16.4 °C 29.92in /  1013.1hPa East 3.6mph /  5.8km/h 11mph /  17.7km/h 88% 0.00in /  0mm 178 W/m2
10:34 65.2 °F /  18.4 °C 61.6 °F /  16.4 °C 29.92in /  1013.1hPa East 3.2mph /  5.1km/h 9mph /  14.5km/h 88% 0.00in /  0mm 135 W/m2
10:39 65.3 °F /  18.5 °C 61.3 °F /  16.3 °C 29.92in /  1013.1hPa NE 3.7mph /  6km/h 9mph /  14.5km/h 87% 0.00in /  0mm 186 W/m2
10:44 65.5 °F /  18.6 °C 61.5 °F /  16.4 °C 29.92in /  1013.1hPa ENE 3.1mph /  5km/h 9mph /  14.5km/h 87% 0.00in /  0mm 179 W/m2
10:49 65.5 °F /  18.6 °C 61.6 °F /  16.4 °C 29.92in /  1013.1hPa ENE 5.5mph /  8.9km/h 9mph /  14.5km/h 87.2% 0.00in /  0mm 163 W/m2
10:54 65.5 °F /  18.6 °C 61.5 °F /  16.4 °C 29.92in /  1013.1hPa NE 4.6mph /  7.4km/h 9mph /  14.5km/h 87% 0.00in /  0mm 183 W/m2
10:59 65.5 °F /  18.6 °C 61.5 °F /  16.4 °C 29.92in /  1013.1hPa NNE 4.9mph /  7.9km/h 9mph /  14.5km/h 87% 0.00in /  0mm 130 W/m2
11:04 65.5 °F /  18.6 °C 61.5 °F /  16.4 °C 29.93in /  1013.4hPa NE 4.2mph /  6.8km/h 11mph /  17.7km/h 87% 0.00in /  0mm 336 W/m2
11:09 65.9 °F /  18.8 °C 61.9 °F /  16.6 °C 29.93in /  1013.4hPa ENE 4.1mph /  6.6km/h 12mph /  19.3km/h 87% 0.00in /  0mm 872 W/m2
11:14 66.7 °F /  19.3 °C 62.7 °F /  17.1 °C 29.92in /  1013.1hPa ENE 4.6mph /  7.4km/h 9mph /  14.5km/h 87% 0.00in /  0mm 872 W/m2
11:24 67.6 °F /  19.8 °C 63 °F /  17.2 °C 29.93in /  1013.4hPa NE 3.6mph /  5.8km/h 8mph /  12.9km/h 85% 0.00in /  0mm 800 W/m2
11:29 68.3 °F /  20.2 °C 63.4 °F /  17.4 °C 29.93in /  1013.4hPa NE 5.7mph /  9.2km/h 12mph /  19.3km/h 84.6% 0.00in /  0mm 322 W/m2
11:34 68.4 °F /  20.2 °C 63.2 °F /  17.3 °C 29.93in /  1013.4hPa NE 3.2mph /  5.1km/h 12mph /  19.3km/h 83.4% 0.00in /  0mm 418 W/m2
11:39 68.5 °F /  20.3 °C 63 °F /  17.2 °C 29.93in /  1013.4hPa NE 7.1mph /  11.4km/h 13mph /  20.9km/h 82.6% 0.00in /  0mm 336 W/m2
11:44 68.4 °F /  20.2 °C 62.5 °F /  16.9 °C 29.93in /  1013.4hPa NE 2.8mph /  4.5km/h 11mph /  17.7km/h 81.8% 0.00in /  0mm 209 W/m2
11:49 68.4 °F /  20.2 °C 62.3 °F /  16.8 °C 29.93in /  1013.4hPa NNE 4.8mph /  7.7km/h 9mph /  14.5km/h 81.2% 0.00in /  0mm 181 W/m2
11:54 68 °F /  20 °C 61.9 °F /  16.6 °C 29.93in /  1013.4hPa NE 5.1mph /  8.2km/h 14mph /  22.5km/h 81% 0.00in /  0mm 174 W/m2
11:59 67.6 °F /  19.8 °C 61.7 °F /  16.5 °C 29.93in /  1013.4hPa NNE 5.1mph /  8.2km/h 13mph /  20.9km/h 81.8% 0.00in /  0mm 160 W/m2
12:03 67.5 °F /  19.7 °C 61.7 °F /  16.5 °C 29.93in /  1013.4hPa East 2mph /  3.2km/h 8mph /  12.9km/h 82% 0.00in /  0mm 202 W/m2
12:09 67.4 °F /  19.7 °C 61.6 °F /  16.4 °C 29.93in /  1013.4hPa East 6mph /  9.7km/h 11mph /  17.7km/h 82% 0.00in /  0mm 199 W/m2
12:14 67.4 °F /  19.7 °C 61.6 °F /  16.4 °C 29.93in /  1013.4hPa NE 5.2mph /  8.4km/h 10mph /  16.1km/h 82% 0.00in /  0mm 200 W/m2
12:19 67.5 °F /  19.7 °C 61.7 °F /  16.5 °C 29.93in /  1013.4hPa NE 6.2mph /  10km/h 10mph /  16.1km/h 82% 0.00in /  0mm 258 W/m2
12:24 67.5 °F /  19.7 °C 61.7 °F /  16.5 °C 29.93in /  1013.4hPa NE 5mph /  8km/h 10mph /  16.1km/h 82% 0.00in /  0mm 297 W/m2
12:29 67.3 °F /  19.6 °C 61.5 °F /  16.4 °C 29.93in /  1013.4hPa NE 7.1mph /  11.4km/h 14mph /  22.5km/h 82% 0.00in /  0mm 269 W/m2
12:34 67.3 °F /  19.6 °C 61.5 °F /  16.4 °C 29.93in /  1013.4hPa NNE 4.3mph /  6.9km/h 10mph /  16.1km/h 82% 0.00in /  0mm 302 W/m2
12:39 67.4 °F /  19.7 °C 61.6 °F /  16.4 °C 29.94in /  1013.8hPa NE 3.8mph /  6.1km/h 8mph /  12.9km/h 82% 0.00in /  0mm 190 W/m2
12:44 67.5 °F /  19.7 °C 61.7 °F /  16.5 °C 29.94in /  1013.8hPa NE 4.2mph /  6.8km/h 9mph /  14.5km/h 82% 0.00in /  0mm 169 W/m2
12:49 67.4 °F /  19.7 °C 61.6 °F /  16.4 °C 29.94in /  1013.8hPa NE 7.2mph /  11.6km/h 14mph /  22.5km/h 82% 0.00in /  0mm 162 W/m2
12:54 67.1 °F /  19.5 °C 61.3 °F /  16.3 °C 29.94in /  1013.8hPa NE 4.2mph /  6.8km/h 9mph /  14.5km/h 82% 0.00in /  0mm 137 W/m2
12:59 66.8 °F /  19.3 °C 61.1 °F /  16.2 °C 29.94in /  1013.8hPa NE 9.3mph /  15km/h 14mph /  22.5km/h 82% 0.00in /  0mm 116 W/m2
13:04 66.6 °F /  19.2 °C 61.2 °F /  16.2 °C 29.94in /  1013.8hPa NE 4.4mph /  7.1km/h 10mph /  16.1km/h 82.8% 0.00in /  0mm 267 W/m2
13:08 66.7 °F /  19.3 °C 61.6 °F /  16.4 °C 29.94in /  1013.8hPa NE 4.3mph /  6.9km/h 10mph /  16.1km/h 83.8% 0.00in /  0mm 257 W/m2
13:14 66.7 °F /  19.3 °C 61.8 °F /  16.6 °C 29.94in /  1013.8hPa NE 2.7mph /  4.3km/h 6mph /  9.7km/h 84.2% 0.00in /  0mm 274 W/m2
13:19 66.7 °F /  19.3 °C 62 °F /  16.7 °C 29.94in /  1013.8hPa North 0.9mph /  1.4km/h 5mph /  8km/h 84.6% 0.00in /  0mm 299 W/m2
13:24 66.9 °F /  19.4 °C 62.2 °F /  16.8 °C 29.94in /  1013.8hPa NNE 1.6mph /  2.6km/h 5mph /  8km/h 85% 0.00in /  0mm 306 W/m2
13:29 67.4 °F /  19.7 °C 62.7 °F /  17.1 °C 29.94in /  1013.8hPa NNE 2.6mph /  4.2km/h 6mph /  9.7km/h 85% 0.00in /  0mm 301 W/m2
13:34 67.5 °F /  19.7 °C 62.4 °F /  16.9 °C 29.94in /  1013.8hPa NNE 6.1mph /  9.8km/h 14mph /  22.5km/h 84% 0.00in /  0mm 287 W/m2
13:39 67.5 °F /  19.7 °C 62.1 °F /  16.7 °C 29.94in /  1013.8hPa NNE 5.3mph /  8.5km/h 10mph /  16.1km/h 83% 0.00in /  0mm 258 W/m2
13:44 67.6 °F /  19.8 °C 62.2 °F /  16.8 °C 29.94in /  1013.8hPa ENE 3.5mph /  5.6km/h 11mph /  17.7km/h 82.8% 0.00in /  0mm 258 W/m2
13:49 67.8 °F /  19.9 °C 62.1 °F /  16.7 °C 29.94in /  1013.8hPa NNE 4.4mph /  7.1km/h 11mph /  17.7km/h 82% 0.00in /  0mm 260 W/m2
13:54 67.8 °F /  19.9 °C 61.7 °F /  16.5 °C 29.94in /  1013.8hPa NNE 3.7mph /  6km/h 12mph /  19.3km/h 81.2% 0.00in /  0mm 172 W/m2
13:59 67.6 °F /  19.8 °C 61.4 °F /  16.3 °C 29.95in /  1014.1hPa NNE 6.8mph /  10.9km/h 12mph /  19.3km/h 81% 0.00in /  0mm 213 W/m2
14:04 67.5 °F /  19.7 °C 61.6 °F /  16.4 °C 29.95in /  1014.1hPa NNE 4.9mph /  7.9km/h 11mph /  17.7km/h 81.8% 0.00in /  0mm 236 W/m2
14:09 67.3 °F /  19.6 °C 61.5 °F /  16.4 °C 29.95in /  1014.1hPa NNW 5mph /  8km/h 9mph /  14.5km/h 82% 0.00in /  0mm 253 W/m2
14:14 66.9 °F /  19.4 °C 61.2 °F /  16.2 °C 29.95in /  1014.1hPa NNW 4.8mph /  7.7km/h 8mph /  12.9km/h 82.2% 0.00in /  0mm 253 W/m2
14:19 66.7 °F /  19.3 °C 61.3 °F /  16.3 °C 29.94in /  1013.8hPa North 7mph /  11.3km/h 12mph /  19.3km/h 83% 0.00in /  0mm 248 W/m2
14:24 66.8 °F /  19.3 °C 61.4 °F /  16.3 °C 29.94in /  1013.8hPa North 3.6mph /  5.8km/h 8mph /  12.9km/h 83% 0.00in /  0mm 299 W/m2
14:29 67.3 °F /  19.6 °C 61.9 °F /  16.6 °C 29.94in /  1013.8hPa NE 1.6mph /  2.6km/h 7mph /  11.3km/h 83% 0.00in /  0mm 329 W/m2
14:34 67.9 °F /  19.9 °C 62.3 °F /  16.8 °C 29.94in /  1013.8hPa NE 6.3mph /  10.1km/h 12mph /  19.3km/h 82.5% 0.00in /  0mm 315 W/m2
14:39 68.4 °F /  20.2 °C 62.5 °F /  16.9 °C 29.94in /  1013.8hPa NE 4.3mph /  6.9km/h 11mph /  17.7km/h 81.8% 0.00in /  0mm 383 W/m2
14:44 68.9 °F /  20.5 °C 62.7 °F /  17.1 °C 29.94in /  1013.8hPa NE 4.9mph /  7.9km/h 13mph /  20.9km/h 80.8% 0.00in /  0mm 425 W/m2
14:49 69.2 °F /  20.7 °C 62.5 °F /  16.9 °C 29.93in /  1013.4hPa NE 5.5mph /  8.9km/h 13mph /  20.9km/h 79.6% 0.00in /  0mm 671 W/m2
14:54 69.8 °F /  21 °C 62.9 °F /  17.2 °C 29.94in /  1013.8hPa East 5.5mph /  8.9km/h 13mph /  20.9km/h 78.8% 0.00in /  0mm 687 W/m2
14:59 70.3 °F /  21.3 °C 62.8 °F /  17.1 °C 29.94in /  1013.8hPa NE 5.1mph /  8.2km/h 19mph /  30.6km/h 77% 0.00in /  0mm 283 W/m2
15:04 70.5 °F /  21.4 °C 62.6 °F /  17 °C 29.93in /  1013.4hPa ENE 4.9mph /  7.9km/h 11mph /  17.7km/h 76% 0.00in /  0mm 292 W/m2
15:09 70.5 °F /  21.4 °C 62.2 °F /  16.8 °C 29.93in /  1013.4hPa NNE 5.6mph /  9km/h 11mph /  17.7km/h 75% 0.00in /  0mm 499 W/m2
15:14 70.3 °F /  21.3 °C 62.1 °F /  16.7 °C 29.93in /  1013.4hPa East 4.6mph /  7.4km/h 14mph /  22.5km/h 75% 0.00in /  0mm 271 W/m2
15:19 70.3 °F /  21.3 °C 62.1 °F /  16.7 °C 29.93in /  1013.4hPa ENE 7.7mph /  12.4km/h 11mph /  17.7km/h 75% 0.00in /  0mm 227 W/m2
15:24 70.2 °F /  21.2 °C 62 °F /  16.7 °C 29.93in /  1013.4hPa ENE 5.8mph /  9.3km/h 12mph /  19.3km/h 75% 0.00in /  0mm 306 W/m2
15:29 70.2 °F /  21.2 °C 61.9 °F /  16.6 °C 29.93in /  1013.4hPa ENE 3.6mph /  5.8km/h 12mph /  19.3km/h 75% 0.00in /  0mm 209 W/m2
15:34 70 °F /  21.1 °C 61.6 °F /  16.4 °C 29.93in /  1013.4hPa ESE 4.2mph /  6.8km/h 8mph /  12.9km/h 74.8% 0.00in /  0mm 165 W/m2
15:39 69.6 °F /  20.9 °C 61.3 °F /  16.3 °C 29.93in /  1013.4hPa NE 5.1mph /  8.2km/h 12mph /  19.3km/h 75% 0.00in /  0mm 188 W/m2
15:44 69.6 °F /  20.9 °C 61.3 °F /  16.3 °C 29.93in /  1013.4hPa NE 6.6mph /  10.6km/h 15mph /  24.1km/h 75% 0.00in /  0mm 209 W/m2
15:49 69.5 °F /  20.8 °C 61.2 °F /  16.2 °C 29.93in /  1013.4hPa NE 3mph /  4.8km/h 12mph /  19.3km/h 75% 0.00in /  0mm 192 W/m2
15:54 69.6 °F /  20.9 °C 61.3 °F /  16.3 °C 29.93in /  1013.4hPa East 5.8mph /  9.3km/h 16mph /  25.7km/h 75% 0.00in /  0mm 200 W/m2
15:59 69.6 °F /  20.9 °C 61.3 °F /  16.3 °C 29.94in /  1013.8hPa NE 5.1mph /  8.2km/h 17mph /  27.4km/h 75% 0.00in /  0mm 214 W/m2
16:04 69.3 °F /  20.7 °C 61.1 °F /  16.2 °C 29.94in /  1013.8hPa NNE 4.6mph /  7.4km/h 11mph /  17.7km/h 75% 0.00in /  0mm 258 W/m2
16:09 69.3 °F /  20.7 °C 61.1 °F /  16.2 °C 29.94in /  1013.8hPa NNE 4.3mph /  6.9km/h 10mph /  16.1km/h 75.2% 0.00in /  0mm 202 W/m2
16:14 69.3 °F /  20.7 °C 61 °F /  16.1 °C 29.94in /  1013.8hPa NNE 6.4mph /  10.3km/h 11mph /  17.7km/h 75% 0.00in /  0mm 232 W/m2
16:19 69.1 °F /  20.6 °C 61.1 °F /  16.2 °C 29.94in /  1013.8hPa North 4.9mph /  7.9km/h 11mph /  17.7km/h 75.8% 0.00in /  0mm 346 W/m2
16:24 68.7 °F /  20.4 °C 61.1 °F /  16.2 °C 29.94in /  1013.8hPa NNE 11.2mph /  18km/h 15mph /  24.1km/h 77% 0.00in /  0mm 366 W/m2
16:29 68.3 °F /  20.2 °C 60.8 °F /  16 °C 29.94in /  1013.8hPa North 8mph /  12.9km/h 17mph /  27.4km/h 77% 0.00in /  0mm 200 W/m2
16:34 68.2 °F /  20.1 °C 60.6 °F /  15.9 °C 29.95in /  1014.1hPa NNE 6.6mph /  10.6km/h 13mph /  20.9km/h 77% 0.00in /  0mm 290 W/m2
16:39 68.5 °F /  20.3 °C 60.9 °F /  16.1 °C 29.95in /  1014.1hPa NNE 2.7mph /  4.3km/h 8mph /  12.9km/h 77% 0.00in /  0mm 338 W/m2
16:44 68.6 °F /  20.3 °C 61 °F /  16.1 °C 29.95in /  1014.1hPa North 7.8mph /  12.6km/h 17mph /  27.4km/h 76.8% 0.00in /  0mm 181 W/m2
16:49 68.2 °F /  20.1 °C 60.6 °F /  15.9 °C 29.95in /  1014.1hPa North 5.1mph /  8.2km/h 12mph /  19.3km/h 77% 0.00in /  0mm 199 W/m2
16:54 67.8 °F /  19.9 °C 60.3 °F /  15.7 °C 29.95in /  1014.1hPa NNE 4.7mph /  7.6km/h 12mph /  19.3km/h 77% 0.00in /  0mm 264 W/m2
16:59 68 °F /  20 °C 60.7 °F /  15.9 °C 29.95in /  1014.1hPa North 4.5mph /  7.2km/h 12mph /  19.3km/h 77.8% 0.00in /  0mm 295 W/m2
17:04 68.4 °F /  20.2 °C 61 °F /  16.1 °C 29.95in /  1014.1hPa NNE 6.6mph /  10.6km/h 17mph /  27.4km/h 77.2% 0.00in /  0mm 338 W/m2
17:09 68.8 °F /  20.4 °C 61.1 °F /  16.2 °C 29.95in /  1014.1hPa NE 6.6mph /  10.6km/h 17mph /  27.4km/h 76.6% 0.00in /  0mm 244 W/m2
17:14 68.7 °F /  20.4 °C 60.8 °F /  16 °C 29.96in /  1014.4hPa NNE 7.6mph /  12.2km/h 13mph /  20.9km/h 76% 0.00in /  0mm 169 W/m2
17:19 68.3 °F /  20.2 °C 60.3 °F /  15.7 °C 29.96in /  1014.4hPa NE 6.5mph /  10.5km/h 19mph /  30.6km/h 75.8% 0.00in /  0mm 162 W/m2
17:24 68 °F /  20 °C 60.1 °F /  15.6 °C 29.96in /  1014.4hPa NNE 6.1mph /  9.8km/h 13mph /  20.9km/h 76% 0.00in /  0mm 153 W/m2
17:29 68 °F /  20 °C 60.1 °F /  15.6 °C 29.96in /  1014.4hPa NE 3.6mph /  5.8km/h 10mph /  16.1km/h 76% 0.00in /  0mm 246 W/m2
17:34 68.3 °F /  20.2 °C 60.4 °F /  15.8 °C 29.96in /  1014.4hPa NE 1.5mph /  2.4km/h 8mph /  12.9km/h 76% 0.00in /  0mm 186 W/m2
17:39 68.4 °F /  20.2 °C 60.3 °F /  15.7 °C 29.96in /  1014.4hPa North 4.7mph /  7.6km/h 13mph /  20.9km/h 75.6% 0.00in /  0mm 123 W/m2
17:44 68.1 °F /  20.1 °C 59.9 °F /  15.5 °C 29.96in /  1014.4hPa NE 3.1mph /  5km/h 13mph /  20.9km/h 75.2% 0.00in /  0mm 109 W/m2
17:49 68 °F /  20 °C 60.1 °F /  15.6 °C 29.96in /  1014.4hPa NE 4.5mph /  7.2km/h 12mph /  19.3km/h 76% 0.00in /  0mm 125 W/m2
17:54 67.8 °F /  19.9 °C 59.9 °F /  15.5 °C 29.97in /  1014.8hPa NNE 4mph /  6.4km/h 11mph /  17.7km/h 75.8% 0.00in /  0mm 116 W/m2
17:58 67.6 °F /  19.8 °C 59.7 °F /  15.4 °C 29.97in /  1014.8hPa NNE 6.2mph /  10km/h 11mph /  17.7km/h 76% 0.00in /  0mm 79 W/m2
18:04 67.5 °F /  19.7 °C 59.5 °F /  15.3 °C 29.97in /  1014.8hPa NNE 4.5mph /  7.2km/h 8mph /  12.9km/h 76% 0.00in /  0mm 81 W/m2
18:09 67.6 °F /  19.8 °C 60 °F /  15.6 °C 29.97in /  1014.8hPa NNE 5.6mph /  9km/h 11mph /  17.7km/h 76.6% 0.00in /  0mm 88 W/m2
18:14 67.6 °F /  19.8 °C 59.8 °F /  15.4 °C 29.97in /  1014.8hPa NE 2.8mph /  4.5km/h 11mph /  17.7km/h 76.2% 0.00in /  0mm 77 W/m2
18:19 67.5 °F /  19.7 °C 59.9 °F /  15.5 °C 29.97in /  1014.8hPa NE 4.4mph /  7.1km/h 8mph /  12.9km/h 76.6% 0.00in /  0mm 79 W/m2
18:24 67.6 °F /  19.8 °C 60.3 °F /  15.7 °C 29.97in /  1014.8hPa East 1.3mph /  2.1km/h 7mph /  11.3km/h 77% 0.00in /  0mm 69 W/m2
18:34 68.2 °F /  20.1 °C 60.4 °F /  15.8 °C 29.97in /  1014.8hPa NE 4.3mph /  6.9km/h 8mph /  12.9km/h 76.4% 0.00in /  0mm 70 W/m2
18:39 68.4 °F /  20.2 °C 60.5 °F /  15.8 °C 29.97in /  1014.8hPa ENE 2.9mph /  4.7km/h 8mph /  12.9km/h 76% 0.00in /  0mm 63 W/m2
18:44 68.3 °F /  20.2 °C 60.3 °F /  15.7 °C 29.97in /  1014.8hPa ENE 2.9mph /  4.7km/h 7mph /  11.3km/h 76% 0.00in /  0mm 67 W/m2
18:49 68.4 °F /  20.2 °C 60.4 °F /  15.8 °C 29.97in /  1014.8hPa NNE 2.6mph /  4.2km/h 6mph /  9.7km/h 76% 0.00in /  0mm 53 W/m2
18:54 68.4 °F /  20.2 °C 60.4 °F /  15.8 °C 29.97in /  1014.8hPa ENE 3.6mph /  5.8km/h 8mph /  12.9km/h 76% 0.00in /  0mm 46 W/m2
18:59 68 °F /  20 °C 59.9 °F /  15.5 °C 29.97in /  1014.8hPa NNE 4.6mph /  7.4km/h 10mph /  16.1km/h 75.6% 0.00in /  0mm 46 W/m2
19:04 67.4 °F /  19.7 °C 59.5 °F /  15.3 °C 29.97in /  1014.8hPa NNE 3.3mph /  5.3km/h 7mph /  11.3km/h 76% 0.00in /  0mm 40 W/m2
19:09 66.9 °F /  19.4 °C 59.5 °F /  15.3 °C 29.97in /  1014.8hPa NNE 3.6mph /  5.8km/h 7mph /  11.3km/h 76.8% 0.00in /  0mm 46 W/m2
19:14 66.7 °F /  19.3 °C 59.7 °F /  15.4 °C 29.97in /  1014.8hPa NNE 3.6mph /  5.8km/h 8mph /  12.9km/h 77.8% 0.00in /  0mm 53 W/m2
19:19 66.7 °F /  19.3 °C 59.7 °F /  15.4 °C 29.97in /  1014.8hPa North 2.4mph /  3.9km/h 6mph /  9.7km/h 78% 0.00in /  0mm 53 W/m2
19:24 66.6 °F /  19.2 °C 59.6 °F /  15.3 °C 29.97in /  1014.8hPa NNE 4.4mph /  7.1km/h 8mph /  12.9km/h 78% 0.00in /  0mm 49 W/m2
19:29 66.2 °F /  19 °C 59.4 °F /  15.2 °C 29.97in /  1014.8hPa North 5mph /  8km/h 9mph /  14.5km/h 78.6% 0.00in /  0mm 47 W/m2
19:34 66 °F /  18.9 °C 59.4 °F /  15.2 °C 29.98in /  1015.1hPa NNE 5.2mph /  8.4km/h 10mph /  16.1km/h 79% 0.00in /  0mm 39 W/m2
19:39 66 °F /  18.9 °C 59.4 °F /  15.2 °C 29.97in /  1014.8hPa NNE 4.2mph /  6.8km/h 10mph /  16.1km/h 79% 0.00in /  0mm 33 W/m2
19:44 65.8 °F /  18.8 °C 59.2 °F /  15.1 °C 29.98in /  1015.1hPa NNW 2.9mph /  4.7km/h 10mph /  16.1km/h 79% 0.00in /  0mm 30 W/m2
19:49 65.7 °F /  18.7 °C 59.2 °F /  15.1 °C 29.98in /  1015.1hPa North 2.2mph /  3.5km/h 4mph /  6.4km/h 79.4% 0.00in /  0mm 32 W/m2
19:54 65.6 °F /  18.7 °C 59.3 °F /  15.2 °C 29.98in /  1015.1hPa NE 3.3mph /  5.3km/h 9mph /  14.5km/h 80% 0.00in /  0mm 28 W/m2
19:59 65.7 °F /  18.7 °C 59.4 °F /  15.2 °C 29.98in /  1015.1hPa NNE 3.1mph /  5km/h 8mph /  12.9km/h 80% 0.00in /  0mm 21 W/m2
20:04 65.3 °F /  18.5 °C 59 °F /  15 °C 29.98in /  1015.1hPa North 3.2mph /  5.1km/h 8mph /  12.9km/h 80% 0.00in /  0mm 14 W/m2
20:09 65.2 °F /  18.4 °C 59 °F /  15 °C 29.98in /  1015.1hPa ENE 3.6mph /  5.8km/h 9mph /  14.5km/h 80.2% 0.00in /  0mm 12 W/m2
20:14 65.4 °F /  18.6 °C 59.1 °F /  15.1 °C 29.98in /  1015.1hPa ENE 2mph /  3.2km/h 9mph /  14.5km/h 80% 0.00in /  0mm 11 W/m2
20:19 65 °F /  18.3 °C 58.7 °F /  14.8 °C 29.98in /  1015.1hPa NNE 1.3mph /  2.1km/h 4mph /  6.4km/h 80% 0.00in /  0mm 7 W/m2
20:24 64.8 °F /  18.2 °C 58.7 °F /  14.8 °C 29.99in /  1015.5hPa North 4mph /  6.4km/h 8mph /  12.9km/h 80.6% 0.00in /  0mm 5 W/m2
20:29 64.7 °F /  18.2 °C 58.7 °F /  14.8 °C 29.99in /  1015.5hPa NE 1.6mph /  2.6km/h 5mph /  8km/h 81% 0.00in /  0mm 0 W/m2
20:34 64.8 °F /  18.2 °C 58.8 °F /  14.9 °C 29.99in /  1015.5hPa NE 2.8mph /  4.5km/h 8mph /  12.9km/h 81% 0.00in /  0mm 0 W/m2
20:39 64.8 °F /  18.2 °C 58.9 °F /  14.9 °C 30.00in /  1015.8hPa NNE 2.9mph /  4.7km/h 9mph /  14.5km/h 81% 0.00in /  0mm 0 W/m2
20:44 64.9 °F /  18.3 °C 58.9 °F /  14.9 °C 30.00in /  1015.8hPa NE 1.1mph /  1.8km/h 4mph /  6.4km/h 81% 0.00in /  0mm 0 W/m2
20:49 65 °F /  18.3 °C 59.1 °F /  15.1 °C 30.00in /  1015.8hPa ENE 2mph /  3.2km/h 8mph /  12.9km/h 81% 0.00in /  0mm 0 W/m2
20:54 65 °F /  18.3 °C 58.9 °F /  14.9 °C 30.01in /  1016.1hPa NNE 4.8mph /  7.7km/h 10mph /  16.1km/h 80.4% 0.00in /  0mm 0 W/m2
20:59 64.8 °F /  18.2 °C 58.5 °F /  14.7 °C 30.01in /  1016.1hPa NE 1.4mph /  2.3km/h 5mph /  8km/h 80% 0.00in /  0mm 0 W/m2
21:04 64.6 °F /  18.1 °C 58.5 °F /  14.7 °C 30.00in /  1015.8hPa NE 1.2mph /  1.9km/h 7mph /  11.3km/h 80.6% 0.00in /  0mm 0 W/m2
21:09 64.5 °F /  18.1 °C 58.5 °F /  14.7 °C 30.00in /  1015.8hPa East 0.9mph /  1.4km/h 5mph /  8km/h 81% 0.00in /  0mm 0 W/m2
21:14 64.2 °F /  17.9 °C 58.3 °F /  14.6 °C 30.01in /  1016.1hPa NE 2.8mph /  4.5km/h 8mph /  12.9km/h 81% 0.00in /  0mm 0 W/m2
21:19 64 °F /  17.8 °C 58.1 °F /  14.5 °C 30.01in /  1016.1hPa NNE 2.5mph /  4km/h 6mph /  9.7km/h 81% 0.00in /  0mm 0 W/m2
21:24 64 °F /  17.8 °C 58.1 °F /  14.5 °C 30.01in /  1016.1hPa NE 0.9mph /  1.4km/h 4mph /  6.4km/h 81% 0.00in /  0mm 0 W/m2
21:29 64 °F /  17.8 °C 58.2 °F /  14.6 °C 30.01in /  1016.1hPa NE 1.4mph /  2.3km/h 3mph /  4.8km/h 81.2% 0.00in /  0mm 0 W/m2
21:34 64 °F /  17.8 °C 58.5 °F /  14.7 °C 30.01in /  1016.1hPa Calm   2mph /  3.2km/h 82% 0.00in /  0mm 0 W/m2
21:39 64 °F /  17.8 °C 58.5 °F /  14.7 °C 30.01in /  1016.1hPa NE 1.1mph /  1.8km/h 3mph /  4.8km/h 82% 0.00in /  0mm 0 W/m2
21:44 64 °F /  17.8 °C 58.5 °F /  14.7 °C 30.01in /  1016.1hPa NE 1.1mph /  1.8km/h 4mph /  6.4km/h 82% 0.00in /  0mm 0 W/m2
21:49 63.9 °F /  17.7 °C 58.4 °F /  14.7 °C 30.01in /  1016.1hPa ENE 2.1mph /  3.4km/h 4mph /  6.4km/h 82% 0.00in /  0mm 0 W/m2
21:54 64 °F /  17.8 °C 58.4 °F /  14.7 °C 30.01in /  1016.1hPa ESE 0.2mph /  0.3km/h 4mph /  6.4km/h 82% 0.00in /  0mm 0 W/m2
21:59 63.9 °F /  17.7 °C 58.3 °F /  14.6 °C 30.01in /  1016.1hPa North 2.1mph /  3.4km/h 5mph /  8km/h 82% 0.00in /  0mm 0 W/m2
22:04 63.9 °F /  17.7 °C 58.3 °F /  14.6 °C 30.01in /  1016.1hPa NNE 2.5mph /  4km/h 5mph /  8km/h 82% 0.00in /  0mm 0 W/m2
22:09 63.9 °F /  17.7 °C 58.3 °F /  14.6 °C 30.01in /  1016.1hPa NE 1.4mph /  2.3km/h 5mph /  8km/h 82% 0.00in /  0mm 0 W/m2
22:14 63.9 °F /  17.7 °C 58.3 °F /  14.6 °C 30.01in /  1016.1hPa NE 2.4mph /  3.9km/h 4mph /  6.4km/h 82% 0.00in /  0mm 0 W/m2
22:19 63.7 °F /  17.6 °C 58.1 °F /  14.5 °C 30.01in /  1016.1hPa North 1.4mph /  2.3km/h 4mph /  6.4km/h 82% 0.00in /  0mm 0 W/m2
22:24 63.7 °F /  17.6 °C 58.1 °F /  14.5 °C 30.01in /  1016.1hPa NE 3.4mph /  5.5km/h 7mph /  11.3km/h 82% 0.00in /  0mm 0 W/m2
22:29 63.7 °F /  17.6 °C 58.1 °F /  14.5 °C 30.01in /  1016.1hPa NE 1mph /  1.6km/h 4mph /  6.4km/h 82% 0.00in /  0mm 0 W/m2
22:34 63.6 °F /  17.6 °C 58 °F /  14.4 °C 30.01in /  1016.1hPa NE 1mph /  1.6km/h 3mph /  4.8km/h 82% 0.00in /  0mm 0 W/m2
22:39 63.6 °F /  17.6 °C 58.2 °F /  14.6 °C 30.01in /  1016.1hPa NE 2.8mph /  4.5km/h 5mph /  8km/h 82.6% 0.00in /  0mm 0 W/m2
22:44 63.4 °F /  17.4 °C 58.2 °F /  14.6 °C 30.01in /  1016.1hPa NNE 3.1mph /  5km/h 5mph /  8km/h 83% 0.00in /  0mm 0 W/m2
22:49 63.5 °F /  17.5 °C 58.3 °F /  14.6 °C 30.01in /  1016.1hPa NE 1mph /  1.6km/h 5mph /  8km/h 83% 0.00in /  0mm 0 W/m2
22:54 63.4 °F /  17.4 °C 58.2 °F /  14.6 °C 30.01in /  1016.1hPa NE 0.7mph /  1.1km/h 4mph /  6.4km/h 83% 0.00in /  0mm 0 W/m2
22:59 63.3 °F /  17.4 °C 58.1 °F /  14.5 °C 30.01in /  1016.1hPa NE 1.4mph /  2.3km/h 5mph /  8km/h 83% 0.00in /  0mm 0 W/m2
Bath Spa Weather
Compliments of Weather Underground - 2 mb